sensor_id;sensor_type;location;lat;lon;timestamp;P1;durP1;ratioP1;P2;durP2;ratioP2
3817;SDS011;1924;48.078;11.516;2022-07-25T00:00:43;34.07;;;0.80;;
3817;SDS011;1924;48.078;11.516;2022-07-25T00:03:26;34.10;;;0.80;;
3817;SDS011;1924;48.078;11.516;2022-07-25T00:06:01;33.97;;;0.80;;
3817;SDS011;1924;48.078;11.516;2022-07-25T00:08:28;34.17;;;0.80;;
3817;SDS011;1924;48.078;11.516;2022-07-25T00:11:08;33.97;;;0.80;;
3817;SDS011;1924;48.078;11.516;2022-07-25T00:13:35;34.20;;;0.80;;
3817;SDS011;1924;48.078;11.516;2022-07-25T00:16:02;34.17;;;0.80;;
3817;SDS011;1924;48.078;11.516;2022-07-25T00:18:32;34.00;;;0.80;;
3817;SDS011;1924;48.078;11.516;2022-07-25T00:20:59;34.10;;;0.80;;
3817;SDS011;1924;48.078;11.516;2022-07-25T00:23:25;34.17;;;0.80;;
3817;SDS011;1924;48.078;11.516;2022-07-25T00:25:52;34.10;;;0.80;;
3817;SDS011;1924;48.078;11.516;2022-07-25T00:28:23;34.00;;;0.80;;
3817;SDS011;1924;48.078;11.516;2022-07-25T00:30:50;33.90;;;0.80;;
3817;SDS011;1924;48.078;11.516;2022-07-25T00:33:17;33.97;;;0.80;;
3817;SDS011;1924;48.078;11.516;2022-07-25T00:35:44;33.73;;;0.80;;
3817;SDS011;1924;48.078;11.516;2022-07-25T00:38:10;34.07;;;0.80;;
3817;SDS011;1924;48.078;11.516;2022-07-25T00:40:37;34.03;;;0.80;;
3817;SDS011;1924;48.078;11.516;2022-07-25T00:43:04;33.90;;;0.80;;
3817;SDS011;1924;48.078;11.516;2022-07-25T00:45:32;33.87;;;0.80;;
3817;SDS011;1924;48.078;11.516;2022-07-25T00:47:59;33.73;;;0.80;;
3817;SDS011;1924;48.078;11.516;2022-07-25T00:50:26;33.87;;;0.80;;
3817;SDS011;1924;48.078;11.516;2022-07-25T00:52:53;33.77;;;0.80;;
3817;SDS011;1924;48.078;11.516;2022-07-25T00:55:21;33.90;;;0.80;;
3817;SDS011;1924;48.078;11.516;2022-07-25T00:57:50;34.00;;;0.80;;
3817;SDS011;1924;48.078;11.516;2022-07-25T01:00:17;33.97;;;0.80;;
3817;SDS011;1924;48.078;11.516;2022-07-25T01:02:45;33.87;;;0.80;;
3817;SDS011;1924;48.078;11.516;2022-07-25T01:05:12;33.80;;;0.80;;
3817;SDS011;1924;48.078;11.516;2022-07-25T01:10:16;33.73;;;0.80;;
3817;SDS011;1924;48.078;11.516;2022-07-25T01:12:44;34.10;;;0.80;;
3817;SDS011;1924;48.078;11.516;2022-07-25T01:15:14;34.03;;;0.80;;
3817;SDS011;1924;48.078;11.516;2022-07-25T01:17:42;33.90;;;0.80;;
3817;SDS011;1924;48.078;11.516;2022-07-25T01:20:22;33.93;;;0.80;;
3817;SDS011;1924;48.078;11.516;2022-07-25T01:22:50;34.20;;;0.80;;
3817;SDS011;1924;48.078;11.516;2022-07-25T01:25:26;33.93;;;0.80;;
3817;SDS011;1924;48.078;11.516;2022-07-25T01:27:53;34.10;;;0.80;;
3817;SDS011;1924;48.078;11.516;2022-07-25T01:30:22;33.77;;;0.80;;
3817;SDS011;1924;48.078;11.516;2022-07-25T01:32:53;33.93;;;0.80;;
3817;SDS011;1924;48.078;11.516;2022-07-25T01:35:21;34.13;;;0.80;;
3817;SDS011;1924;48.078;11.516;2022-07-25T01:37:50;34.10;;;0.80;;
3817;SDS011;1924;48.078;11.516;2022-07-25T01:40:23;34.20;;;0.80;;
3817;SDS011;1924;48.078;11.516;2022-07-25T01:42:50;34.10;;;0.80;;
3817;SDS011;1924;48.078;11.516;2022-07-25T01:45:17;34.27;;;0.80;;
3817;SDS011;1924;48.078;11.516;2022-07-25T01:47:44;34.27;;;0.80;;
3817;SDS011;1924;48.078;11.516;2022-07-25T01:50:10;34.23;;;0.80;;
3817;SDS011;1924;48.078;11.516;2022-07-25T01:52:38;34.27;;;0.80;;
3817;SDS011;1924;48.078;11.516;2022-07-25T01:55:08;34.30;;;0.80;;
3817;SDS011;1924;48.078;11.516;2022-07-25T01:57:37;34.37;;;0.80;;
3817;SDS011;1924;48.078;11.516;2022-07-25T02:00:05;34.20;;;0.80;;
3817;SDS011;1924;48.078;11.516;2022-07-25T02:02:34;34.17;;;0.80;;
3817;SDS011;1924;48.078;11.516;2022-07-25T02:05:01;34.13;;;0.80;;
3817;SDS011;1924;48.078;11.516;2022-07-25T02:07:28;34.30;;;0.80;;
3817;SDS011;1924;48.078;11.516;2022-07-25T02:09:56;34.27;;;0.80;;
3817;SDS011;1924;48.078;11.516;2022-07-25T02:12:23;34.23;;;0.80;;
3817;SDS011;1924;48.078;11.516;2022-07-25T02:14:49;34.07;;;0.80;;
3817;SDS011;1924;48.078;11.516;2022-07-25T02:17:17;33.97;;;0.80;;
3817;SDS011;1924;48.078;11.516;2022-07-25T02:19:49;34.20;;;0.80;;
3817;SDS011;1924;48.078;11.516;2022-07-25T02:22:16;34.00;;;0.80;;
3817;SDS011;1924;48.078;11.516;2022-07-25T02:24:43;34.00;;;0.80;;
3817;SDS011;1924;48.078;11.516;2022-07-25T02:27:11;33.87;;;0.80;;
3817;SDS011;1924;48.078;11.516;2022-07-25T02:29:41;34.00;;;0.80;;
3817;SDS011;1924;48.078;11.516;2022-07-25T02:32:08;34.00;;;0.80;;
3817;SDS011;1924;48.078;11.516;2022-07-25T02:34:44;34.10;;;0.80;;
3817;SDS011;1924;48.078;11.516;2022-07-25T02:37:14;33.97;;;0.80;;
3817;SDS011;1924;48.078;11.516;2022-07-25T02:39:44;34.10;;;0.80;;
3817;SDS011;1924;48.078;11.516;2022-07-25T02:42:17;33.97;;;0.80;;
3817;SDS011;1924;48.078;11.516;2022-07-25T02:44:52;33.97;;;0.80;;
3817;SDS011;1924;48.078;11.516;2022-07-25T02:47:20;34.07;;;0.80;;
3817;SDS011;1924;48.078;11.516;2022-07-25T02:49:47;33.97;;;0.80;;
3817;SDS011;1924;48.078;11.516;2022-07-25T02:52:14;34.00;;;0.80;;
3817;SDS011;1924;48.078;11.516;2022-07-25T02:54:41;34.17;;;0.80;;
3817;SDS011;1924;48.078;11.516;2022-07-25T02:57:08;34.07;;;0.80;;
3817;SDS011;1924;48.078;11.516;2022-07-25T02:59:37;33.97;;;0.80;;
3817;SDS011;1924;48.078;11.516;2022-07-25T03:02:04;34.17;;;0.80;;
3817;SDS011;1924;48.078;11.516;2022-07-25T03:04:31;34.07;;;0.80;;
3817;SDS011;1924;48.078;11.516;2022-07-25T03:06:58;34.17;;;0.80;;
3817;SDS011;1924;48.078;11.516;2022-07-25T03:09:25;33.97;;;0.80;;
3817;SDS011;1924;48.078;11.516;2022-07-25T03:11:55;33.67;;;0.80;;
3817;SDS011;1924;48.078;11.516;2022-07-25T03:14:22;33.90;;;0.80;;
3817;SDS011;1924;48.078;11.516;2022-07-25T03:16:50;33.97;;;0.80;;
3817;SDS011;1924;48.078;11.516;2022-07-25T03:19:18;33.87;;;0.80;;
3817;SDS011;1924;48.078;11.516;2022-07-25T03:21:45;33.90;;;0.80;;
3817;SDS011;1924;48.078;11.516;2022-07-25T03:24:12;33.97;;;0.80;;
3817;SDS011;1924;48.078;11.516;2022-07-25T03:26:38;34.07;;;0.80;;
3817;SDS011;1924;48.078;11.516;2022-07-25T03:29:11;34.03;;;0.80;;
3817;SDS011;1924;48.078;11.516;2022-07-25T03:31:38;34.10;;;0.80;;
3817;SDS011;1924;48.078;11.516;2022-07-25T03:34:06;34.03;;;0.80;;
3817;SDS011;1924;48.078;11.516;2022-07-25T03:36:32;34.03;;;0.80;;
3817;SDS011;1924;48.078;11.516;2022-07-25T03:38:59;33.90;;;0.80;;
3817;SDS011;1924;48.078;11.516;2022-07-25T03:41:26;34.13;;;0.80;;
3817;SDS011;1924;48.078;11.516;2022-07-25T03:43:52;34.10;;;0.80;;
3817;SDS011;1924;48.078;11.516;2022-07-25T03:46:19;34.27;;;0.80;;
3817;SDS011;1924;48.078;11.516;2022-07-25T03:48:47;34.10;;;0.80;;
3817;SDS011;1924;48.078;11.516;2022-07-25T03:51:15;34.03;;;0.80;;
3817;SDS011;1924;48.078;11.516;2022-07-25T03:53:42;34.23;;;0.80;;
3817;SDS011;1924;48.078;11.516;2022-07-25T03:56:26;34.30;;;0.80;;
3817;SDS011;1924;48.078;11.516;2022-07-25T03:58:53;34.20;;;0.80;;
3817;SDS011;1924;48.078;11.516;2022-07-25T04:01:23;34.20;;;0.80;;
3817;SDS011;1924;48.078;11.516;2022-07-25T04:03:50;34.20;;;0.80;;
3817;SDS011;1924;48.078;11.516;2022-07-25T04:06:18;34.20;;;0.80;;
3817;SDS011;1924;48.078;11.516;2022-07-25T04:08:45;34.13;;;0.80;;
3817;SDS011;1924;48.078;11.516;2022-07-25T04:11:21;34.03;;;0.80;;
3817;SDS011;1924;48.078;11.516;2022-07-25T04:13:48;34.00;;;0.80;;
3817;SDS011;1924;48.078;11.516;2022-07-25T04:16:15;34.10;;;0.80;;
3817;SDS011;1924;48.078;11.516;2022-07-25T04:18:42;34.13;;;0.80;;
3817;SDS011;1924;48.078;11.516;2022-07-25T04:21:09;34.20;;;0.80;;
3817;SDS011;1924;48.078;11.516;2022-07-25T04:23:37;34.30;;;0.80;;
3817;SDS011;1924;48.078;11.516;2022-07-25T04:26:04;34.37;;;0.80;;
3817;SDS011;1924;48.078;11.516;2022-07-25T04:28:31;34.30;;;0.80;;
3817;SDS011;1924;48.078;11.516;2022-07-25T04:30:58;33.97;;;0.80;;
3817;SDS011;1924;48.078;11.516;2022-07-25T04:33:25;34.30;;;0.80;;
3817;SDS011;1924;48.078;11.516;2022-07-25T04:35:52;34.07;;;0.80;;
3817;SDS011;1924;48.078;11.516;2022-07-25T04:38:19;34.17;;;0.80;;
3817;SDS011;1924;48.078;11.516;2022-07-25T04:40:47;34.13;;;0.80;;
3817;SDS011;1924;48.078;11.516;2022-07-25T04:43:14;34.07;;;0.80;;
3817;SDS011;1924;48.078;11.516;2022-07-25T04:45:41;34.07;;;0.80;;
3817;SDS011;1924;48.078;11.516;2022-07-25T04:48:07;34.10;;;0.80;;
3817;SDS011;1924;48.078;11.516;2022-07-25T04:50:34;33.90;;;0.80;;
3817;SDS011;1924;48.078;11.516;2022-07-25T04:53:01;34.17;;;0.80;;
3817;SDS011;1924;48.078;11.516;2022-07-25T04:55:27;34.20;;;0.80;;
3817;SDS011;1924;48.078;11.516;2022-07-25T04:57:57;34.10;;;0.80;;
3817;SDS011;1924;48.078;11.516;2022-07-25T05:00:26;34.17;;;0.80;;
3817;SDS011;1924;48.078;11.516;2022-07-25T05:02:53;34.13;;;0.80;;
3817;SDS011;1924;48.078;11.516;2022-07-25T05:05:20;34.17;;;0.80;;
3817;SDS011;1924;48.078;11.516;2022-07-25T05:07:47;34.07;;;0.80;;
3817;SDS011;1924;48.078;11.516;2022-07-25T05:10:14;34.20;;;0.80;;
3817;SDS011;1924;48.078;11.516;2022-07-25T05:12:41;34.17;;;0.80;;
3817;SDS011;1924;48.078;11.516;2022-07-25T05:15:10;33.80;;;0.80;;
3817;SDS011;1924;48.078;11.516;2022-07-25T05:17:39;34.00;;;0.80;;
3817;SDS011;1924;48.078;11.516;2022-07-25T05:20:09;34.00;;;0.80;;
3817;SDS011;1924;48.078;11.516;2022-07-25T05:22:40;33.63;;;0.80;;
3817;SDS011;1924;48.078;11.516;2022-07-25T05:25:07;34.00;;;0.80;;
3817;SDS011;1924;48.078;11.516;2022-07-25T05:27:35;34.07;;;0.90;;
3817;SDS011;1924;48.078;11.516;2022-07-25T05:30:03;33.73;;;0.80;;
3817;SDS011;1924;48.078;11.516;2022-07-25T05:32:32;33.87;;;0.80;;
3817;SDS011;1924;48.078;11.516;2022-07-25T05:34:59;33.77;;;0.80;;
3817;SDS011;1924;48.078;11.516;2022-07-25T05:37:26;33.90;;;0.80;;
3817;SDS011;1924;48.078;11.516;2022-07-25T05:39:53;34.03;;;0.80;;
3817;SDS011;1924;48.078;11.516;2022-07-25T05:42:20;33.80;;;0.80;;
3817;SDS011;1924;48.078;11.516;2022-07-25T05:44:46;33.70;;;0.80;;
3817;SDS011;1924;48.078;11.516;2022-07-25T05:47:13;33.87;;;0.80;;
3817;SDS011;1924;48.078;11.516;2022-07-25T05:49:42;33.73;;;0.80;;
3817;SDS011;1924;48.078;11.516;2022-07-25T05:52:09;33.70;;;0.80;;
3817;SDS011;1924;48.078;11.516;2022-07-25T05:54:35;33.67;;;0.80;;
3817;SDS011;1924;48.078;11.516;2022-07-25T05:57:02;33.70;;;0.80;;
3817;SDS011;1924;48.078;11.516;2022-07-25T05:59:29;33.73;;;0.80;;
3817;SDS011;1924;48.078;11.516;2022-07-25T06:01:56;33.60;;;0.80;;
3817;SDS011;1924;48.078;11.516;2022-07-25T06:04:22;33.67;;;0.80;;
3817;SDS011;1924;48.078;11.516;2022-07-25T06:06:51;33.60;;;0.80;;
3817;SDS011;1924;48.078;11.516;2022-07-25T06:09:17;33.50;;;0.80;;
3817;SDS011;1924;48.078;11.516;2022-07-25T06:11:45;33.67;;;0.80;;
3817;SDS011;1924;48.078;11.516;2022-07-25T06:14:12;33.70;;;0.80;;
3817;SDS011;1924;48.078;11.516;2022-07-25T06:16:39;33.47;;;0.80;;
3817;SDS011;1924;48.078;11.516;2022-07-25T06:19:06;33.57;;;0.80;;
3817;SDS011;1924;48.078;11.516;2022-07-25T06:21:33;33.57;;;0.80;;
3817;SDS011;1924;48.078;11.516;2022-07-25T06:24:02;33.57;;;0.80;;
3817;SDS011;1924;48.078;11.516;2022-07-25T06:26:29;33.57;;;0.80;;
3817;SDS011;1924;48.078;11.516;2022-07-25T06:28:56;33.60;;;0.80;;
3817;SDS011;1924;48.078;11.516;2022-07-25T06:31:23;33.57;;;0.80;;
3817;SDS011;1924;48.078;11.516;2022-07-25T06:33:50;33.50;;;0.80;;
3817;SDS011;1924;48.078;11.516;2022-07-25T06:36:16;33.43;;;0.80;;
3817;SDS011;1924;48.078;11.516;2022-07-25T06:38:46;33.37;;;0.80;;
3817;SDS011;1924;48.078;11.516;2022-07-25T06:41:15;33.57;;;0.80;;
3817;SDS011;1924;48.078;11.516;2022-07-25T06:43:42;33.47;;;0.80;;
3817;SDS011;1924;48.078;11.516;2022-07-25T06:46:08;33.17;;;0.80;;
3817;SDS011;1924;48.078;11.516;2022-07-25T06:48:35;33.43;;;0.77;;
3817;SDS011;1924;48.078;11.516;2022-07-25T06:51:02;33.40;;;0.80;;
3817;SDS011;1924;48.078;11.516;2022-07-25T06:53:30;33.33;;;0.80;;
3817;SDS011;1924;48.078;11.516;2022-07-25T06:55:57;33.43;;;0.80;;
3817;SDS011;1924;48.078;11.516;2022-07-25T06:58:25;33.57;;;0.80;;
3817;SDS011;1924;48.078;11.516;2022-07-25T07:00:51;33.23;;;0.80;;
3817;SDS011;1924;48.078;11.516;2022-07-25T07:03:18;33.40;;;0.80;;
3817;SDS011;1924;48.078;11.516;2022-07-25T07:05:45;33.47;;;0.80;;
3817;SDS011;1924;48.078;11.516;2022-07-25T07:08:12;33.27;;;0.80;;
3817;SDS011;1924;48.078;11.516;2022-07-25T07:10:39;33.47;;;0.80;;
3817;SDS011;1924;48.078;11.516;2022-07-25T07:13:07;33.40;;;0.80;;
3817;SDS011;1924;48.078;11.516;2022-07-25T07:15:36;33.27;;;0.80;;
3817;SDS011;1924;48.078;11.516;2022-07-25T07:18:04;33.53;;;0.80;;
3817;SDS011;1924;48.078;11.516;2022-07-25T07:20:31;33.37;;;0.80;;
3817;SDS011;1924;48.078;11.516;2022-07-25T07:22:57;33.27;;;0.80;;
3817;SDS011;1924;48.078;11.516;2022-07-25T07:25:24;33.40;;;0.80;;
3817;SDS011;1924;48.078;11.516;2022-07-25T07:27:51;33.33;;;0.80;;
3817;SDS011;1924;48.078;11.516;2022-07-25T07:30:18;33.10;;;0.80;;
3817;SDS011;1924;48.078;11.516;2022-07-25T07:32:46;33.17;;;0.80;;
3817;SDS011;1924;48.078;11.516;2022-07-25T07:35:13;33.17;;;0.80;;
3817;SDS011;1924;48.078;11.516;2022-07-25T07:37:43;32.97;;;0.80;;
3817;SDS011;1924;48.078;11.516;2022-07-25T07:40:11;33.00;;;0.80;;
3817;SDS011;1924;48.078;11.516;2022-07-25T07:42:39;32.93;;;0.80;;
3817;SDS011;1924;48.078;11.516;2022-07-25T07:45:10;33.07;;;0.80;;
3817;SDS011;1924;48.078;11.516;2022-07-25T07:47:38;33.17;;;0.80;;
3817;SDS011;1924;48.078;11.516;2022-07-25T07:50:07;33.10;;;0.80;;
3817;SDS011;1924;48.078;11.516;2022-07-25T07:52:35;33.20;;;0.80;;
3817;SDS011;1924;48.078;11.516;2022-07-25T07:55:02;33.00;;;0.80;;
3817;SDS011;1924;48.078;11.516;2022-07-25T07:57:47;33.00;;;0.80;;
3817;SDS011;1924;48.078;11.516;2022-07-25T08:00:14;33.03;;;0.80;;
3817;SDS011;1924;48.078;11.516;2022-07-25T08:02:43;33.27;;;0.80;;
3817;SDS011;1924;48.078;11.516;2022-07-25T08:05:12;33.27;;;0.80;;
3817;SDS011;1924;48.078;11.516;2022-07-25T08:07:44;33.27;;;0.80;;
3817;SDS011;1924;48.078;11.516;2022-07-25T08:10:11;33.30;;;0.80;;
3817;SDS011;1924;48.078;11.516;2022-07-25T08:12:38;33.40;;;0.80;;
3817;SDS011;1924;48.078;11.516;2022-07-25T08:15:06;33.47;;;0.80;;
3817;SDS011;1924;48.078;11.516;2022-07-25T08:17:34;33.70;;;0.80;;
3817;SDS011;1924;48.078;11.516;2022-07-25T08:20:01;33.50;;;0.80;;
3817;SDS011;1924;48.078;11.516;2022-07-25T08:22:36;33.60;;;0.80;;
3817;SDS011;1924;48.078;11.516;2022-07-25T08:25:05;33.37;;;0.80;;
3817;SDS011;1924;48.078;11.516;2022-07-25T08:27:33;33.50;;;0.80;;
3817;SDS011;1924;48.078;11.516;2022-07-25T08:30:00;33.40;;;0.80;;
3817;SDS011;1924;48.078;11.516;2022-07-25T08:32:27;33.57;;;0.80;;
3817;SDS011;1924;48.078;11.516;2022-07-25T08:34:53;33.70;;;0.80;;
3817;SDS011;1924;48.078;11.516;2022-07-25T08:37:20;33.53;;;0.80;;
3817;SDS011;1924;48.078;11.516;2022-07-25T08:39:48;33.60;;;0.80;;
3817;SDS011;1924;48.078;11.516;2022-07-25T08:42:15;33.70;;;0.80;;
3817;SDS011;1924;48.078;11.516;2022-07-25T08:44:43;33.27;;;0.80;;
3817;SDS011;1924;48.078;11.516;2022-07-25T08:47:15;33.63;;;0.80;;
3817;SDS011;1924;48.078;11.516;2022-07-25T08:49:42;33.63;;;0.80;;
3817;SDS011;1924;48.078;11.516;2022-07-25T08:52:09;33.57;;;0.80;;
3817;SDS011;1924;48.078;11.516;2022-07-25T08:54:36;33.80;;;0.80;;
3817;SDS011;1924;48.078;11.516;2022-07-25T08:57:05;33.73;;;0.80;;
3817;SDS011;1924;48.078;11.516;2022-07-25T08:59:31;33.70;;;0.80;;
3817;SDS011;1924;48.078;11.516;2022-07-25T09:02:00;33.60;;;0.80;;
3817;SDS011;1924;48.078;11.516;2022-07-25T09:04:31;33.60;;;0.80;;
3817;SDS011;1924;48.078;11.516;2022-07-25T09:06:58;33.57;;;0.80;;
3817;SDS011;1924;48.078;11.516;2022-07-25T09:09:29;33.60;;;0.80;;
3817;SDS011;1924;48.078;11.516;2022-07-25T09:11:56;33.53;;;0.80;;
3817;SDS011;1924;48.078;11.516;2022-07-25T09:14:25;33.60;;;0.80;;
3817;SDS011;1924;48.078;11.516;2022-07-25T09:16:53;33.57;;;0.80;;
3817;SDS011;1924;48.078;11.516;2022-07-25T09:19:22;33.47;;;0.80;;
3817;SDS011;1924;48.078;11.516;2022-07-25T09:21:57;33.50;;;0.80;;
3817;SDS011;1924;48.078;11.516;2022-07-25T09:24:25;33.60;;;0.80;;
3817;SDS011;1924;48.078;11.516;2022-07-25T09:26:53;33.33;;;0.80;;
3817;SDS011;1924;48.078;11.516;2022-07-25T09:29:23;33.47;;;0.80;;
3817;SDS011;1924;48.078;11.516;2022-07-25T09:31:54;33.47;;;0.80;;
3817;SDS011;1924;48.078;11.516;2022-07-25T09:34:31;33.60;;;0.80;;
3817;SDS011;1924;48.078;11.516;2022-07-25T09:36:59;33.47;;;0.80;;
3817;SDS011;1924;48.078;11.516;2022-07-25T09:39:34;33.60;;;0.80;;
3817;SDS011;1924;48.078;11.516;2022-07-25T09:42:12;33.33;;;0.80;;
3817;SDS011;1924;48.078;11.516;2022-07-25T09:44:55;33.37;;;0.80;;
3817;SDS011;1924;48.078;11.516;2022-07-25T09:47:27;33.57;;;0.80;;
3817;SDS011;1924;48.078;11.516;2022-07-25T09:49:54;33.60;;;0.80;;
3817;SDS011;1924;48.078;11.516;2022-07-25T09:52:21;33.57;;;0.80;;
3817;SDS011;1924;48.078;11.516;2022-07-25T09:54:48;33.60;;;0.80;;
3817;SDS011;1924;48.078;11.516;2022-07-25T09:57:15;33.67;;;0.80;;
3817;SDS011;1924;48.078;11.516;2022-07-25T09:59:42;33.47;;;0.80;;
3817;SDS011;1924;48.078;11.516;2022-07-25T10:02:12;33.80;;;0.80;;
3817;SDS011;1924;48.078;11.516;2022-07-25T10:04:52;33.67;;;0.80;;
3817;SDS011;1924;48.078;11.516;2022-07-25T10:07:29;33.57;;;0.80;;
3817;SDS011;1924;48.078;11.516;2022-07-25T10:09:58;33.57;;;0.80;;
3817;SDS011;1924;48.078;11.516;2022-07-25T10:12:25;33.70;;;0.80;;
3817;SDS011;1924;48.078;11.516;2022-07-25T10:15:05;33.67;;;0.80;;
3817;SDS011;1924;48.078;11.516;2022-07-25T10:17:35;33.57;;;0.80;;
3817;SDS011;1924;48.078;11.516;2022-07-25T10:20:05;33.77;;;0.80;;
3817;SDS011;1924;48.078;11.516;2022-07-25T10:22:37;33.77;;;0.80;;
3817;SDS011;1924;48.078;11.516;2022-07-25T10:25:12;33.80;;;0.80;;
3817;SDS011;1924;48.078;11.516;2022-07-25T10:27:41;33.77;;;0.80;;
3817;SDS011;1924;48.078;11.516;2022-07-25T10:30:18;33.80;;;0.80;;
3817;SDS011;1924;48.078;11.516;2022-07-25T10:32:54;33.83;;;0.80;;
3817;SDS011;1924;48.078;11.516;2022-07-25T10:35:22;33.97;;;0.80;;
3817;SDS011;1924;48.078;11.516;2022-07-25T10:37:50;33.87;;;0.80;;
3817;SDS011;1924;48.078;11.516;2022-07-25T10:40:28;34.00;;;0.80;;
3817;SDS011;1924;48.078;11.516;2022-07-25T10:43:05;33.90;;;0.80;;
3817;SDS011;1924;48.078;11.516;2022-07-25T10:45:37;33.83;;;0.80;;
3817;SDS011;1924;48.078;11.516;2022-07-25T10:48:08;33.87;;;0.80;;
3817;SDS011;1924;48.078;11.516;2022-07-25T10:50:46;33.90;;;0.80;;
3817;SDS011;1924;48.078;11.516;2022-07-25T10:53:27;33.90;;;0.80;;
3817;SDS011;1924;48.078;11.516;2022-07-25T10:55:57;33.97;;;0.80;;
3817;SDS011;1924;48.078;11.516;2022-07-25T10:58:24;33.60;;;0.80;;
3817;SDS011;1924;48.078;11.516;2022-07-25T11:00:51;33.87;;;0.80;;
3817;SDS011;1924;48.078;11.516;2022-07-25T11:03:20;34.13;;;0.80;;
3817;SDS011;1924;48.078;11.516;2022-07-25T11:05:47;34.07;;;0.80;;
3817;SDS011;1924;48.078;11.516;2022-07-25T11:08:28;34.40;;;0.80;;
3817;SDS011;1924;48.078;11.516;2022-07-25T11:10:55;34.50;;;0.80;;
3817;SDS011;1924;48.078;11.516;2022-07-25T11:13:22;34.50;;;0.80;;
3817;SDS011;1924;48.078;11.516;2022-07-25T11:15:49;34.40;;;0.80;;
3817;SDS011;1924;48.078;11.516;2022-07-25T11:18:16;34.47;;;0.80;;
3817;SDS011;1924;48.078;11.516;2022-07-25T11:20:44;34.37;;;0.80;;
3817;SDS011;1924;48.078;11.516;2022-07-25T11:23:11;34.37;;;0.80;;
3817;SDS011;1924;48.078;11.516;2022-07-25T11:25:46;34.33;;;0.80;;
3817;SDS011;1924;48.078;11.516;2022-07-25T11:28:12;34.37;;;0.80;;
3817;SDS011;1924;48.078;11.516;2022-07-25T11:30:39;34.57;;;0.80;;
3817;SDS011;1924;48.078;11.516;2022-07-25T11:33:06;34.50;;;0.80;;
3817;SDS011;1924;48.078;11.516;2022-07-25T11:35:36;34.40;;;0.80;;
3817;SDS011;1924;48.078;11.516;2022-07-25T11:38:04;34.53;;;0.80;;
3817;SDS011;1924;48.078;11.516;2022-07-25T11:40:31;34.37;;;0.80;;
3817;SDS011;1924;48.078;11.516;2022-07-25T11:42:57;34.47;;;0.80;;
3817;SDS011;1924;48.078;11.516;2022-07-25T11:45:25;34.67;;;0.80;;
3817;SDS011;1924;48.078;11.516;2022-07-25T11:48:01;34.80;;;0.80;;
3817;SDS011;1924;48.078;11.516;2022-07-25T11:50:29;34.87;;;0.80;;
3817;SDS011;1924;48.078;11.516;2022-07-25T11:52:58;34.73;;;0.80;;
3817;SDS011;1924;48.078;11.516;2022-07-25T11:55:28;34.57;;;0.80;;
3817;SDS011;1924;48.078;11.516;2022-07-25T11:57:56;34.87;;;0.80;;
3817;SDS011;1924;48.078;11.516;2022-07-25T12:00:24;34.70;;;0.80;;
3817;SDS011;1924;48.078;11.516;2022-07-25T12:02:51;34.83;;;0.80;;
3817;SDS011;1924;48.078;11.516;2022-07-25T12:05:19;34.90;;;0.80;;
3817;SDS011;1924;48.078;11.516;2022-07-25T12:07:48;34.90;;;0.80;;
3817;SDS011;1924;48.078;11.516;2022-07-25T12:10:17;34.67;;;0.80;;
3817;SDS011;1924;48.078;11.516;2022-07-25T12:12:51;34.43;;;0.80;;
3817;SDS011;1924;48.078;11.516;2022-07-25T12:15:20;34.93;;;0.80;;
3817;SDS011;1924;48.078;11.516;2022-07-25T12:17:48;34.77;;;0.80;;
3817;SDS011;1924;48.078;11.516;2022-07-25T12:20:17;34.87;;;0.80;;
3817;SDS011;1924;48.078;11.516;2022-07-25T12:22:45;34.63;;;0.80;;
3817;SDS011;1924;48.078;11.516;2022-07-25T12:25:13;34.80;;;0.80;;
3817;SDS011;1924;48.078;11.516;2022-07-25T12:27:40;34.90;;;0.80;;
3817;SDS011;1924;48.078;11.516;2022-07-25T12:30:09;34.80;;;0.80;;
3817;SDS011;1924;48.078;11.516;2022-07-25T12:32:37;34.93;;;0.80;;
3817;SDS011;1924;48.078;11.516;2022-07-25T12:35:04;34.93;;;0.80;;
3817;SDS011;1924;48.078;11.516;2022-07-25T12:37:32;34.90;;;0.80;;
3817;SDS011;1924;48.078;11.516;2022-07-25T12:39:59;34.70;;;0.80;;
3817;SDS011;1924;48.078;11.516;2022-07-25T12:42:26;34.80;;;0.80;;
3817;SDS011;1924;48.078;11.516;2022-07-25T12:44:53;34.90;;;0.80;;
3817;SDS011;1924;48.078;11.516;2022-07-25T12:47:22;35.00;;;0.80;;
3817;SDS011;1924;48.078;11.516;2022-07-25T12:49:50;34.87;;;0.80;;
3817;SDS011;1924;48.078;11.516;2022-07-25T12:52:17;35.07;;;0.80;;
3817;SDS011;1924;48.078;11.516;2022-07-25T12:54:43;34.83;;;0.80;;
3817;SDS011;1924;48.078;11.516;2022-07-25T12:57:10;35.00;;;0.80;;
3817;SDS011;1924;48.078;11.516;2022-07-25T12:59:37;34.87;;;0.80;;
3817;SDS011;1924;48.078;11.516;2022-07-25T13:02:05;34.90;;;0.80;;
3817;SDS011;1924;48.078;11.516;2022-07-25T13:04:33;35.10;;;0.80;;
3817;SDS011;1924;48.078;11.516;2022-07-25T13:07:00;34.97;;;0.80;;
3817;SDS011;1924;48.078;11.516;2022-07-25T13:09:27;35.00;;;0.80;;
3817;SDS011;1924;48.078;11.516;2022-07-25T13:11:54;35.00;;;0.80;;
3817;SDS011;1924;48.078;11.516;2022-07-25T13:14:21;34.87;;;0.80;;
3817;SDS011;1924;48.078;11.516;2022-07-25T13:16:48;34.77;;;0.80;;
3817;SDS011;1924;48.078;11.516;2022-07-25T13:19:15;35.07;;;0.80;;
3817;SDS011;1924;48.078;11.516;2022-07-25T13:21:43;35.03;;;0.80;;
3817;SDS011;1924;48.078;11.516;2022-07-25T13:24:10;35.20;;;0.80;;
3817;SDS011;1924;48.078;11.516;2022-07-25T13:26:37;35.40;;;0.80;;
3817;SDS011;1924;48.078;11.516;2022-07-25T13:29:04;35.30;;;0.80;;
3817;SDS011;1924;48.078;11.516;2022-07-25T13:31:32;35.37;;;0.80;;
3817;SDS011;1924;48.078;11.516;2022-07-25T13:33:59;35.57;;;0.80;;
3817;SDS011;1924;48.078;11.516;2022-07-25T13:36:26;35.23;;;0.80;;
3817;SDS011;1924;48.078;11.516;2022-07-25T13:38:55;35.17;;;0.80;;
3817;SDS011;1924;48.078;11.516;2022-07-25T13:41:21;35.47;;;0.80;;
3817;SDS011;1924;48.078;11.516;2022-07-25T13:43:48;35.30;;;0.80;;
3817;SDS011;1924;48.078;11.516;2022-07-25T13:46:15;35.33;;;0.80;;
3817;SDS011;1924;48.078;11.516;2022-07-25T13:48:42;35.37;;;0.80;;
3817;SDS011;1924;48.078;11.516;2022-07-25T13:51:09;35.27;;;0.80;;
3817;SDS011;1924;48.078;11.516;2022-07-25T13:53:37;35.27;;;0.80;;
3817;SDS011;1924;48.078;11.516;2022-07-25T13:56:05;35.23;;;0.80;;
3817;SDS011;1924;48.078;11.516;2022-07-25T13:58:32;35.40;;;0.80;;
3817;SDS011;1924;48.078;11.516;2022-07-25T14:00:59;35.47;;;0.80;;
3817;SDS011;1924;48.078;11.516;2022-07-25T14:03:25;35.37;;;0.80;;
3817;SDS011;1924;48.078;11.516;2022-07-25T14:05:52;35.37;;;0.80;;
3817;SDS011;1924;48.078;11.516;2022-07-25T14:08:19;35.50;;;0.80;;
3817;SDS011;1924;48.078;11.516;2022-07-25T14:10:46;35.70;;;0.80;;
3817;SDS011;1924;48.078;11.516;2022-07-25T14:13:14;35.33;;;0.80;;
3817;SDS011;1924;48.078;11.516;2022-07-25T14:15:41;35.67;;;0.80;;
3817;SDS011;1924;48.078;11.516;2022-07-25T14:18:08;35.57;;;0.80;;
3817;SDS011;1924;48.078;11.516;2022-07-25T14:20:35;35.47;;;0.80;;
3817;SDS011;1924;48.078;11.516;2022-07-25T14:23:02;35.53;;;0.80;;
3817;SDS011;1924;48.078;11.516;2022-07-25T14:25:29;35.63;;;0.80;;
3817;SDS011;1924;48.078;11.516;2022-07-25T14:27:56;35.77;;;0.80;;
3817;SDS011;1924;48.078;11.516;2022-07-25T14:30:25;35.77;;;0.80;;
3817;SDS011;1924;48.078;11.516;2022-07-25T14:32:52;35.87;;;0.80;;
3817;SDS011;1924;48.078;11.516;2022-07-25T14:35:19;35.77;;;0.80;;
3817;SDS011;1924;48.078;11.516;2022-07-25T14:37:46;35.67;;;0.80;;
3817;SDS011;1924;48.078;11.516;2022-07-25T14:40:12;35.80;;;0.80;;
3817;SDS011;1924;48.078;11.516;2022-07-25T14:42:39;35.80;;;0.80;;
3817;SDS011;1924;48.078;11.516;2022-07-25T14:45:07;35.87;;;0.80;;
3817;SDS011;1924;48.078;11.516;2022-07-25T14:47:36;35.87;;;0.80;;
3817;SDS011;1924;48.078;11.516;2022-07-25T14:50:04;35.73;;;0.80;;
3817;SDS011;1924;48.078;11.516;2022-07-25T14:52:31;35.77;;;0.80;;
3817;SDS011;1924;48.078;11.516;2022-07-25T14:54:58;35.83;;;0.80;;
3817;SDS011;1924;48.078;11.516;2022-07-25T14:57:24;36.00;;;0.80;;